Who's Online

We have 3 guests online

GK Weather

An error occured during parsing XML data. Please try again.

Aviation WX

[source: ADDS]
METAR
KIAD 191652Z 09015G18KT 10SM SCT200 OVC250 18/06 A3011 RMK AO2 SLP193 T01830056 =
TAF
KIAD 191527Z 1915/2018 10012G20KT P6SM OVC200 FM192200 09012G18KT 5SM -RA OVC035 FM200100 09012G22KT 3SM RA OVC015 FM200400 10012G25KT 3SM +RA OVC008 WS020/12040KT FM200700 09011KT 3SM +RA OVC003 WS020/13040KT FM201000 12008KT 5SM -RA OVC003 WS020/14030KT FM201300 24005KT P6SM BKN015 FM201600 22006KT P6SM BKN250 =
SR / SS: 00:10 / 13:31 UTC (Washington-Dulles 2015-04-19)

JoomlaWatch Agent

Home Links
We are regularly out on the Web. When we find a great site we list it.